Nivelles, Belgium
Current Conditions -  °F | °C
As of 12:50 PM on Wednesday 28 Jan 2015 (Local Time) from EBCI Reporting Station
Drizzle Drizzle  
Wind Chill: -1°   Ceiling: 1100
Heat Index:   Visibility: 4mi
Dew Point:   Wind: 25mph
Humidity: 81%   Direction: 200°SSW
Pressure: 29.71"   Gusts: 37mph
Location:  50.6°N, 4.33°E
Report Text: EBCI 281150Z 20022G32KT 7000 -DZ BKN011 BKN025 05/02 Q1006 NOSIG
Loading
Personal Weather Stations






























Interactive Weather Map New forecast layout! Learn more

10-Day Weather Forecast

Advertisements
Track Severe Weather on mobile